Nearby METAR Reports

 

LEXJ - Santander/Paraya, Spain
Distancia a la estación: ESE 6km
Actualizado: 24/02/2018 04:30
Nubes dispersas
Nubes dispersas
 Viento del calm
Viento: Calma
Temperatura: 1°C
Rocío: 0°C
Humedad: 93%
Barómetro: 1008 hPa
Nubes: Nubes dispersas
Visibilidad: 6 km
Detalle Nubes: Nubes dispersas 884 m
2018/02/24 03:30 LEXJ 240330Z AUTO 00000KT 6000 FEW029/// 01/M00 Q1008
LEBB - Bilbao/Sondica, Spain
Distancia a la estación: ESE 80km
Actualizado: 24/02/2018 04:30
Muy nuboso
Muy nuboso
 Viento del E
Viento: E 6 km/h
Temperatura: 5°C
Rocío: 0°C
Humedad: 70%
Barómetro: 1008 hPa
Nubes: Muy nuboso
Visibilidad: 10 km
Detalle Nubes: Muy nuboso 975 m
2018/02/24 03:30 LEBB 240330Z AUTO 09003KT 9999 BKN032/// 05/M00 Q1008
 
LEZG - Zaragoza (mil/Ci, Spain
Distancia a la estación: NNE 176km
Actualizado: 24/02/2018 04:30
Despejado
Despejado
 Viento del O
Viento: O 11 km/h
Temperatura: -2°C
Sensación Térmica: -6°C
Rocío: -3°C
Humedad: 93%
Barómetro: 1008 hPa
Resumen: Despejado
Visibilidad: greater than 10 km
2018/02/24 03:30 LEZG 240330Z 28006KT CAVOK M02/M03 Q1008
LEVT - Vitoria, Spain
Distancia a la estación: ESE 114km
Actualizado: 24/02/2018 04:30
Muy nuboso
Muy nuboso
 Viento del varies
Viento: varies 4 km/h
Temperatura: 0°C
Rocío: -3°C
Humedad: 80%
Barómetro: 1006 hPa
Nubes: Muy nuboso
Visibilidad: 10 km
Detalle Nubes: Muy nuboso 610 m
2018/02/24 03:30 LEVT 240330Z VRB02KT 9999 BKN020 00/M03 Q1006
 
LEBG - Burgos/Villafria, Spain
Distancia a la estación: S 122km
Actualizado: 24/02/2018 04:30
Despejado
Despejado
 Viento del E
Viento: E 6 km/h
Temperatura: -6°C
Rocío: -7°C
Humedad: 93%
Barómetro: 1004 hPa
Nubes: Despejado
Visibilidad: 8 km
2018/02/24 03:30 LEBG 240330Z AUTO 09003KT 060V130 8000 NCD M06/M07 Q1004
LELO - Logrono/Agoncill, Spain
Distancia a la estación: SE 169km
Actualizado: 23/02/2018 23:00
NOT Current
Despejado
Despejado
 Viento del S
Viento: S 6 km/h
Temperatura: -1°C
Rocío: -3°C
Humedad: 86%
Barómetro: 1007 hPa
Resumen: Despejado
Visibilidad: greater than 10 km
2018/02/23 22:00 LELO 232200Z 17003KT CAVOK M01/M03 Q1007
 
LESO - San Sebastian/Fu, Spain
Distancia a la estación: E 169km
Actualizado: 24/02/2018 04:30
Despejado
Despejado
 Viento del varies
Viento: varies 4 km/h
Temperatura: 1°C
Rocío: -1°C
Humedad: 87%
Barómetro: 1009 hPa
Nubes: Despejado
Visibilidad: 7 km
2018/02/24 03:30 LESO 240330Z AUTO VRB02KT 7000 NCD 01/M01 Q1009
LEAS - Asturias/Aviles, Spain
Distancia a la estación: O 172km
Actualizado: 24/02/2018 04:30
Despejado
Despejado
 Viento del varies
Viento: varies 4 km/h
Temperatura: 2°C
Rocío: 0°C
Humedad: 87%
Barómetro: 1007 hPa
Nubes: Despejado
Visibilidad: 6 km
2018/02/24 03:30 LEAS 240330Z AUTO VRB02KT 6000 NCD 02/00 Q1007
 
LELN - Leon/Virgen Cami, Spain
Distancia a la estación: SO 174km
Actualizado: 23/02/2018 21:00
NOT Current
Despejado
Despejado
 Viento del O
Viento: O 6 km/h
Temperatura: -5°C
Rocío: -11°C
Humedad: 63%
Barómetro: 1005 hPa
Resumen: Despejado
Visibilidad: greater than 10 km
2018/02/23 20:00 LELN 232000Z 28003KT CAVOK M05/M11 Q1005
LFBZ - Biarritz/Anglet, France
Distancia a la estación: E 191km
Actualizado: 24/02/2018 04:30
Parcialmente nuboso
Parcialmente nuboso
 Viento del SE
Viento: SE 6 km/h
Temperatura: -1°C
Rocío: -3°C
Humedad: 86%
Barómetro: 1008 hPa
Nubes: Parcialmente nuboso
Visibilidad: 9 km
2018/02/24 03:30 LFBZ 240330Z AUTO 14003KT 9000 NSC M01/M03 Q1008 TEMPO 3000 BR
 
LEPP - Pamplona/Noain, Spain
Distancia a la estación: ESE 199km
Actualizado: 24/02/2018 04:30
Despejado
Despejado
 Viento del S
Viento: S 6 km/h
Temperatura: -3°C
Rocío: -5°C
Humedad: 86%
Barómetro: 1007 hPa
Nubes: Despejado
Visibilidad: 8 km
2018/02/24 03:30 LEPP 240330Z AUTO 18003KT 8000 NCD M03/M05 Q1007
LEBL - Barcelona Airpor, Spain
Distancia a la estación: ESE 554km
Actualizado: 24/02/2018 04:30
Nubes dispersas
Nubes dispersas
 Viento del NNO
Viento: NNO 17 km/h
Temperatura: 3°C
Sensación Térmica: -1°C
Rocío: -1°C
Humedad: 75%
Barómetro: 1007 hPa
Nubes: Nubes dispersas
Visibilidad: 10 km
Detalle Nubes: Nubes dispersas 762 m
2018/02/24 03:30 LEBL 240330Z 33009KT 9999 FEW025 03/M01 Q1007 NOSIG
 
LEMD - Madrid/Barajas, Spain
Distancia a la estación: S 325km
Actualizado: 24/02/2018 04:30
Despejado
Despejado
 Viento del N
Viento: N 6 km/h
Temperatura: -3°C
Rocío: -8°C
Humedad: 69%
Barómetro: 1005 hPa
Resumen: Despejado
Visibilidad: greater than 10 km
2018/02/24 03:30 LEMD 240330Z 35003KT CAVOK M03/M08 Q1005 NOSIG
LPPT - Lisbon/Portela, Portugal
Distancia a la estación: SO 663km
Actualizado: 24/02/2018 04:30
Despejado
Despejado
 Viento del NE
Viento: NE 7 km/h
Temperatura: 6°C
Sensación Térmica: 4°C
Rocío: -1°C
Humedad: 61%
Barómetro: 1004 hPa
Resumen: Despejado
Visibilidad: greater than 10 km
2018/02/24 03:30 LPPT 240330Z 05004KT CAVOK 06/M01 Q1004
 
LECO - La Coruna/Alvedr, Spain
Distancia a la estación: O 349km
Actualizado: 24/02/2018 04:30
Despejado
Despejado
 Viento del S
Viento: S 9 km/h
Temperatura: 1°C
Sensación Térmica: -2°C
Rocío: 0°C
Humedad: 93%
Barómetro: 1005 hPa
Nubes: Despejado
Visibilidad: 8 km
2018/02/24 03:30 LECO 240330Z AUTO 18005KT 8000 NCD 01/00 Q1005
LEST - Santiago/Labacol, Spain
Distancia a la estación: O 358km
Actualizado: 24/02/2018 04:30
Despejado
Despejado
 Viento del ESE
Viento: ESE 7 km/h
Temperatura: 1°C
Sensación Térmica: -2°C
Rocío: -2°C
Humedad: 81%
Barómetro: 1005 hPa
Resumen: Despejado
Visibilidad: greater than 10 km
2018/02/24 03:30 LEST 240330Z 11004KT CAVOK 01/M02 Q1005 NOSIG